Soaring Guidance
Issued by NWS Reno, NV

Home | Current Version | Previous Version | Text Only | Print | Product List | Glossary On
Versions: 1 2 3 4 5 6 7 8 9 10 11 12 13 14
571
UXUS97 KREV 181512
SRGREV

SOARING FORECAST
NATIONAL WEATHER SERVICE - RENO NV
700 AM PST SAT NOV 18 2017

THIS SOARING FORECAST IS FOR THE EASTERN SIERRA AND WESTERN NEVADA
WITH SPECIFIC INDICES FOR THE GREATER RENO AREA.

THIS FORECAST IS PREPARED DAILY BY 700 AM AND IS NOT UPDATED.

FOR CURRENT FLIGHT CONDITIONS...FORECASTS...AND ADVISORIES...ACCESS
YOUR LOCAL BRIEFING OUTLET OR FLIGHT SERVICE STATION.

*******************************************************************
FORECASTED LOCAL INDICES FOR RENO:        TODAY     YESTERDAY
FORECASTED MAX TEMP AT RENO (DEG F).....     52          49
FORECASTED TRIGGER TEMPERATURE (DEG F)..     62          53
   EXCEEDED YESTERDAY BY
FORECASTED MAXIMUM ALTITUDE (FT MSL)....   7700        9800
FORECASTED SOARING INDEX (FPM)..........    321         294
FORECASTED K-INDEX.........VALID 18Z....    -34           4
FORECASTED K-INDEX.........VALID 00Z....    -23         -16
FORECASTED LIFTED INDEX....VALID 18Z....     12           9
FORECASTED LIFTED INDEX....VALID 00Z....      8          10

AFTERNOON WINDS ALOFT FORECAST
MSL (FT) WIND/TEMP
9000  2419/+05
10000 2419/+03
12000 2519/+00
14000 2521/-05
16000 2523/-10
18000 2630/-16
24000 2739/-29
30000 2641/-45
34000 2749/-54
39000 2652/-59

SLIDE MOUNTAIN DATA:
     DATE       TIME     TEMP  DEWPT   RH         WIND (MPH)
                        (F)   (F)           | DIR  SPEED GUST
2017-11-18    05:50      26    22     78    | 224   13   15
2017-11-18    05:30      26    22     80    | 224   13   14
2017-11-18    05:20      25    22     83    | 224   12   13
2017-11-18    05:00      25    22     85    | 224   12   14

SIERRA CREST 8700 FT DATA:
   DATE     TIME  TEMP  RH         WIND
                            DIR   SPEED   GUST
2017-11-18 0600   26   89   218     14     18
2017-11-18 0545   25   91   231     12     17
2017-11-18 0530   26   92   234     12     14
2017-11-18 0515   25   93   235     11     15

RENO TAF FORECAST:
KRNO 181120Z 1812/1912 VRB03KT P6SM SKC
     FM182200 13005KT P6SM SKC
     FM190100 VRB03KT P6SM SKC

CARSON CITY TAF FORECAST:
KCXP 181120Z 1812/1912 VRB03KT P6SM SKC
     FM182100 10008KT P6SM SKC
     FM190100 VRB03KT P6SM SKC

OUTLOOK FOR THE RENO-CARSON CITY-MINDEN AREA:
.SUNDAY...SUNNY IN THE MORNING THEN BECOMING PARTLY CLOUDY. HIGHS
53 TO 58. LIGHT WINDS.

SUNRISE AND SUNSET
NOVEMBER 18 2017......SUNRISE   647 AM PST   SUNSET   442 PM PST
NOVEMBER 19 2017......SUNRISE   648 AM PST   SUNSET   441 PM PST



USA.gov is the U.S. government's official web portal to all federal, state and local government web resources and services.